sensor_id;sensor_type;location;lat;lon;timestamp;temperature;humidity
84067;SHT35;74151;52.134;5.500;2024-03-23T00:52:49;8.23;87.41
84067;SHT35;74151;52.134;5.500;2024-03-23T00:55:19;8.22;87.46
84067;SHT35;74151;52.134;5.500;2024-03-23T00:57:51;8.22;87.45
84067;SHT35;74151;52.134;5.500;2024-03-23T01:00:21;8.22;87.20
84067;SHT35;74151;52.134;5.500;2024-03-23T01:02:54;8.21;87.32
84067;SHT35;74151;52.134;5.500;2024-03-23T01:05:26;8.19;87.38
84067;SHT35;74151;52.134;5.500;2024-03-23T01:08:00;8.18;87.48
84067;SHT35;74151;52.134;5.500;2024-03-23T01:10:30;8.18;87.45
84067;SHT35;74151;52.134;5.500;2024-03-23T01:13:03;8.17;87.58
84067;SHT35;74151;52.134;5.500;2024-03-23T01:15:37;8.16;87.49
84067;SHT35;74151;52.134;5.500;2024-03-23T01:18:07;8.15;87.60
84067;SHT35;74151;52.134;5.500;2024-03-23T01:20:42;8.14;87.57
84067;SHT35;74151;52.134;5.500;2024-03-23T01:23:15;8.13;87.73
84067;SHT35;74151;52.134;5.500;2024-03-23T01:25:54;8.12;87.74
84067;SHT35;74151;52.134;5.500;2024-03-23T01:28:26;8.11;87.90
84067;SHT35;74151;52.134;5.500;2024-03-23T01:31:01;8.11;87.95
84067;SHT35;74151;52.134;5.500;2024-03-23T01:33:31;8.12;87.79
84067;SHT35;74151;52.134;5.500;2024-03-23T01:36:03;8.13;87.88
84067;SHT35;74151;52.134;5.500;2024-03-23T01:38:36;8.12;87.69
84067;SHT35;74151;52.134;5.500;2024-03-23T01:41:10;8.11;87.71
84067;SHT35;74151;52.134;5.500;2024-03-23T01:43:45;8.10;87.60
84067;SHT35;74151;52.134;5.500;2024-03-23T01:46:18;8.09;87.53
84067;SHT35;74151;52.134;5.500;2024-03-23T01:48:51;8.07;87.26
84067;SHT35;74151;52.134;5.500;2024-03-23T01:51:23;8.04;87.28
84067;SHT35;74151;52.134;5.500;2024-03-23T01:53:57;8.03;87.09
84067;SHT35;74151;52.134;5.500;2024-03-23T01:56:32;8.02;86.87
84067;SHT35;74151;52.134;5.500;2024-03-23T01:59:06;7.99;86.60
84067;SHT35;74151;52.134;5.500;2024-03-23T02:01:36;7.96;86.21
84067;SHT35;74151;52.134;5.500;2024-03-23T02:04:13;7.94;86.20
84067;SHT35;74151;52.134;5.500;2024-03-23T02:06:43;7.91;86.44
84067;SHT35;74151;52.134;5.500;2024-03-23T02:09:20;7.89;86.12
84067;SHT35;74151;52.134;5.500;2024-03-23T02:11:50;7.86;86.19
84067;SHT35;74151;52.134;5.500;2024-03-23T02:14:22;7.80;86.21
84067;SHT35;74151;52.134;5.500;2024-03-23T02:16:55;7.75;86.24
84067;SHT35;74151;52.134;5.500;2024-03-23T02:19:27;7.71;86.38
84067;SHT35;74151;52.134;5.500;2024-03-23T02:22:00;7.67;86.24
84067;SHT35;74151;52.134;5.500;2024-03-23T02:24:32;7.62;86.63
84067;SHT35;74151;52.134;5.500;2024-03-23T02:27:05;7.58;86.43
84067;SHT35;74151;52.134;5.500;2024-03-23T02:29:39;7.54;86.78
84067;SHT35;74151;52.134;5.500;2024-03-23T02:32:11;7.51;86.93
84067;SHT35;74151;52.134;5.500;2024-03-23T02:34:45;7.47;86.74
84067;SHT35;74151;52.134;5.500;2024-03-23T02:37:18;7.43;86.74
84067;SHT35;74151;52.134;5.500;2024-03-23T02:39:48;7.39;87.07
84067;SHT35;74151;52.134;5.500;2024-03-23T02:42:23;7.35;87.25
84067;SHT35;74151;52.134;5.500;2024-03-23T02:44:55;7.30;87.50
84067;SHT35;74151;52.134;5.500;2024-03-23T02:47:27;7.27;87.23
84067;SHT35;74151;52.134;5.500;2024-03-23T02:50:00;7.23;87.33
84067;SHT35;74151;52.134;5.500;2024-03-23T02:52:30;7.20;87.12
84067;SHT35;74151;52.134;5.500;2024-03-23T02:55:05;7.18;87.03
84067;SHT35;74151;52.134;5.500;2024-03-23T02:57:35;7.15;86.58
84067;SHT35;74151;52.134;5.500;2024-03-23T03:00:10;7.13;86.81
84067;SHT35;74151;52.134;5.500;2024-03-23T03:02:48;7.10;86.61
84067;SHT35;74151;52.134;5.500;2024-03-23T03:05:18;7.07;86.52
84067;SHT35;74151;52.134;5.500;2024-03-23T03:07:53;7.04;86.40
84067;SHT35;74151;52.134;5.500;2024-03-23T03:10:25;7.03;86.38
84067;SHT35;74151;52.134;5.500;2024-03-23T03:13:01;7.01;86.63
84067;SHT35;74151;52.134;5.500;2024-03-23T03:15:36;7.01;86.24
84067;SHT35;74151;52.134;5.500;2024-03-23T03:18:06;6.99;86.25
84067;SHT35;74151;52.134;5.500;2024-03-23T03:20:41;6.97;86.36
84067;SHT35;74151;52.134;5.500;2024-03-23T03:23:11;6.94;85.94
84067;SHT35;74151;52.134;5.500;2024-03-23T03:25:41;6.91;85.67
84067;SHT35;74151;52.134;5.500;2024-03-23T03:28:14;6.88;85.62
84067;SHT35;74151;52.134;5.500;2024-03-23T03:30:47;6.85;85.92
84067;SHT35;74151;52.134;5.500;2024-03-23T03:33:17;6.82;85.86
84067;SHT35;74151;52.134;5.500;2024-03-23T03:35:47;6.79;85.48
84067;SHT35;74151;52.134;5.500;2024-03-23T03:38:19;6.74;85.79
84067;SHT35;74151;52.134;5.500;2024-03-23T03:40:49;6.70;85.59
84067;SHT35;74151;52.134;5.500;2024-03-23T03:43:24;6.67;85.34
84067;SHT35;74151;52.134;5.500;2024-03-23T03:46:00;6.61;85.33
84067;SHT35;74151;52.134;5.500;2024-03-23T03:48:32;6.55;85.99
84067;SHT35;74151;52.134;5.500;2024-03-23T03:51:05;6.51;85.98
84067;SHT35;74151;52.134;5.500;2024-03-23T03:53:37;6.46;85.81
84067;SHT35;74151;52.134;5.500;2024-03-23T03:56:09;6.42;85.11
84067;SHT35;74151;52.134;5.500;2024-03-23T03:58:42;6.39;85.45
84067;SHT35;74151;52.134;5.500;2024-03-23T04:01:19;6.34;85.43
84067;SHT35;74151;52.134;5.500;2024-03-23T04:03:56;6.30;85.55
84067;SHT35;74151;52.134;5.500;2024-03-23T04:06:28;6.26;85.56
84067;SHT35;74151;52.134;5.500;2024-03-23T04:08:59;6.22;85.54
84067;SHT35;74151;52.134;5.500;2024-03-23T04:11:32;6.19;85.69
84067;SHT35;74151;52.134;5.500;2024-03-23T04:14:07;6.16;85.78
84067;SHT35;74151;52.134;5.500;2024-03-23T04:16:39;6.13;85.59
84067;SHT35;74151;52.134;5.500;2024-03-23T04:19:14;6.10;85.55
84067;SHT35;74151;52.134;5.500;2024-03-23T04:21:46;6.07;85.62
84067;SHT35;74151;52.134;5.500;2024-03-23T04:24:16;6.04;85.29
84067;SHT35;74151;52.134;5.500;2024-03-23T04:26:51;6.02;85.72
84067;SHT35;74151;52.134;5.500;2024-03-23T04:29:23;5.99;86.01
84067;SHT35;74151;52.134;5.500;2024-03-23T04:31:54;5.97;85.69
84067;SHT35;74151;52.134;5.500;2024-03-23T04:34:26;5.95;85.71
84067;SHT35;74151;52.134;5.500;2024-03-23T04:37:02;5.93;86.08
84067;SHT35;74151;52.134;5.500;2024-03-23T04:39:37;5.92;85.67
84067;SHT35;74151;52.134;5.500;2024-03-23T04:42:10;5.89;85.75
84067;SHT35;74151;52.134;5.500;2024-03-23T04:44:42;5.85;85.49
84067;SHT35;74151;52.134;5.500;2024-03-23T04:47:13;5.81;85.89
84067;SHT35;74151;52.134;5.500;2024-03-23T04:49:45;5.79;86.01
84067;SHT35;74151;52.134;5.500;2024-03-23T04:52:19;5.76;85.99
84067;SHT35;74151;52.134;5.500;2024-03-23T04:54:52;5.73;86.33
84067;SHT35;74151;52.134;5.500;2024-03-23T04:57:22;5.72;87.09
84067;SHT35;74151;52.134;5.500;2024-03-23T04:59:54;5.71;87.26
84067;SHT35;74151;52.134;5.500;2024-03-23T05:02:29;5.69;87.32
84067;SHT35;74151;52.134;5.500;2024-03-23T05:05:01;5.68;87.30
84067;SHT35;74151;52.134;5.500;2024-03-23T05:07:37;5.65;86.80
84067;SHT35;74151;52.134;5.500;2024-03-23T05:10:09;5.62;86.26
84067;SHT35;74151;52.134;5.500;2024-03-23T05:12:39;5.57;86.31
84067;SHT35;74151;52.134;5.500;2024-03-23T05:15:11;5.54;85.96
84067;SHT35;74151;52.134;5.500;2024-03-23T05:17:44;5.49;85.94
84067;SHT35;74151;52.134;5.500;2024-03-23T05:20:16;5.44;86.19
84067;SHT35;74151;52.134;5.500;2024-03-23T05:22:47;5.40;86.33
84067;SHT35;74151;52.134;5.500;2024-03-23T05:25:22;5.37;85.98
84067;SHT35;74151;52.134;5.500;2024-03-23T05:27:57;5.35;86.22
84067;SHT35;74151;52.134;5.500;2024-03-23T05:30:32;5.33;85.99
84067;SHT35;74151;52.134;5.500;2024-03-23T05:33:04;5.31;86.03
84067;SHT35;74151;52.134;5.500;2024-03-23T05:35:39;5.29;85.71
84067;SHT35;74151;52.134;5.500;2024-03-23T05:38:09;5.26;85.76
84067;SHT35;74151;52.134;5.500;2024-03-23T05:40:41;5.23;86.06
84067;SHT35;74151;52.134;5.500;2024-03-23T05:43:16;5.22;86.11
84067;SHT35;74151;52.134;5.500;2024-03-23T05:46:00;5.21;85.89
84067;SHT35;74151;52.134;5.500;2024-03-23T05:48:30;5.19;85.84
84067;SHT35;74151;52.134;5.500;2024-03-23T05:51:03;5.19;86.66
84067;SHT35;74151;52.134;5.500;2024-03-23T05:53:33;5.22;86.79
84067;SHT35;74151;52.134;5.500;2024-03-23T05:56:10;5.25;87.18
84067;SHT35;74151;52.134;5.500;2024-03-23T05:58:43;5.30;86.67
84067;SHT35;74151;52.134;5.500;2024-03-23T06:01:14;5.34;86.84
84067;SHT35;74151;52.134;5.500;2024-03-23T06:03:48;5.36;86.76
84067;SHT35;74151;52.134;5.500;2024-03-23T06:06:21;5.39;86.15
84067;SHT35;74151;52.134;5.500;2024-03-23T06:08:51;5.40;86.22
84067;SHT35;74151;52.134;5.500;2024-03-23T06:11:27;5.42;86.20
84067;SHT35;74151;52.134;5.500;2024-03-23T06:13:59;5.43;85.98
84067;SHT35;74151;52.134;5.500;2024-03-23T06:16:29;5.44;86.54
84067;SHT35;74151;52.134;5.500;2024-03-23T06:19:06;5.45;86.35
84067;SHT35;74151;52.134;5.500;2024-03-23T06:21:43;5.47;85.51
84067;SHT35;74151;52.134;5.500;2024-03-23T06:24:16;5.47;85.33
84067;SHT35;74151;52.134;5.500;2024-03-23T06:26:48;5.49;85.29
84067;SHT35;74151;52.134;5.500;2024-03-23T06:29:21;5.49;85.09
84067;SHT35;74151;52.134;5.500;2024-03-23T06:31:54;5.51;85.55
84067;SHT35;74151;52.134;5.500;2024-03-23T06:34:24;5.59;85.86
84067;SHT35;74151;52.134;5.500;2024-03-23T06:36:57;5.72;84.70
84067;SHT35;74151;52.134;5.500;2024-03-23T06:39:31;5.88;84.63
84067;SHT35;74151;52.134;5.500;2024-03-23T06:42:03;6.33;82.87
84067;SHT35;74151;52.134;5.500;2024-03-23T06:44:33;6.83;80.51
84067;SHT35;74151;52.134;5.500;2024-03-23T06:47:03;7.20;78.55
84067;SHT35;74151;52.134;5.500;2024-03-23T06:49:35;7.56;77.73
84067;SHT35;74151;52.134;5.500;2024-03-23T06:52:05;7.99;76.00
84067;SHT35;74151;52.134;5.500;2024-03-23T06:54:37;8.49;74.16
84067;SHT35;74151;52.134;5.500;2024-03-23T06:57:17;8.95;73.08
84067;SHT35;74151;52.134;5.500;2024-03-23T06:59:52;9.20;70.75
84067;SHT35;74151;52.134;5.500;2024-03-23T07:02:22;9.25;71.00
84067;SHT35;74151;52.134;5.500;2024-03-23T07:04:56;9.27;71.01
84067;SHT35;74151;52.134;5.500;2024-03-23T07:07:31;9.22;70.51
84067;SHT35;74151;52.134;5.500;2024-03-23T07:10:06;9.15;72.02
84067;SHT35;74151;52.134;5.500;2024-03-23T07:12:40;9.08;71.50
84067;SHT35;74151;52.134;5.500;2024-03-23T07:15:12;9.03;71.64
84067;SHT35;74151;52.134;5.500;2024-03-23T07:17:49;8.97;72.57
84067;SHT35;74151;52.134;5.500;2024-03-23T07:20:21;8.96;72.49
84067;SHT35;74151;52.134;5.500;2024-03-23T07:22:56;8.91;72.36
84067;SHT35;74151;52.134;5.500;2024-03-23T07:25:26;8.89;73.33
84067;SHT35;74151;52.134;5.500;2024-03-23T07:28:01;8.89;72.88
84067;SHT35;74151;52.134;5.500;2024-03-23T07:30:38;8.86;73.68
84067;SHT35;74151;52.134;5.500;2024-03-23T07:33:13;8.93;73.91
84067;SHT35;74151;52.134;5.500;2024-03-23T07:35:43;9.09;73.96
84067;SHT35;74151;52.134;5.500;2024-03-23T07:38:19;9.26;72.27
84067;SHT35;74151;52.134;5.500;2024-03-23T07:40:49;9.37;70.77
84067;SHT35;74151;52.134;5.500;2024-03-23T07:43:28;9.44;72.54
84067;SHT35;74151;52.134;5.500;2024-03-23T07:46:02;9.52;71.85
84067;SHT35;74151;52.134;5.500;2024-03-23T07:48:37;9.54;71.18
84067;SHT35;74151;52.134;5.500;2024-03-23T07:51:16;9.52;72.11
84067;SHT35;74151;52.134;5.500;2024-03-23T07:53:51;9.50;71.87
84067;SHT35;74151;52.134;5.500;2024-03-23T07:56:24;9.51;71.13
84067;SHT35;74151;52.134;5.500;2024-03-23T07:58:54;9.54;72.28
84067;SHT35;74151;52.134;5.500;2024-03-23T08:01:32;9.54;70.37
84067;SHT35;74151;52.134;5.500;2024-03-23T08:04:06;9.64;70.54
84067;SHT35;74151;52.134;5.500;2024-03-23T08:06:39;10.17;67.49
84067;SHT35;74151;52.134;5.500;2024-03-23T08:09:09;10.58;65.74
84067;SHT35;74151;52.134;5.500;2024-03-23T08:11:41;10.97;64.19
84067;SHT35;74151;52.134;5.500;2024-03-23T08:14:13;11.28;64.23
84067;SHT35;74151;52.134;5.500;2024-03-23T08:16:45;11.37;62.84
84067;SHT35;74151;52.134;5.500;2024-03-23T08:19:20;11.51;63.51
84067;SHT35;74151;52.134;5.500;2024-03-23T08:21:55;11.99;61.55
84067;SHT35;74151;52.134;5.500;2024-03-23T08:24:29;12.23;61.48
84067;SHT35;74151;52.134;5.500;2024-03-23T08:26:59;12.30;58.98
84067;SHT35;74151;52.134;5.500;2024-03-23T08:29:29;12.33;57.35
84067;SHT35;74151;52.134;5.500;2024-03-23T08:32:03;12.09;56.58
84067;SHT35;74151;52.134;5.500;2024-03-23T08:34:36;11.77;59.62
84067;SHT35;74151;52.134;5.500;2024-03-23T08:37:08;11.63;60.43
84067;SHT35;74151;52.134;5.500;2024-03-23T08:39:38;11.63;60.77
84067;SHT35;74151;52.134;5.500;2024-03-23T08:42:10;11.64;60.24
84067;SHT35;74151;52.134;5.500;2024-03-23T08:44:43;11.54;58.16
84067;SHT35;74151;52.134;5.500;2024-03-23T08:47:18;11.27;60.29
84067;SHT35;74151;52.134;5.500;2024-03-23T08:49:48;11.03;60.65
84067;SHT35;74151;52.134;5.500;2024-03-23T08:52:23;10.81;61.34
84067;SHT35;74151;52.134;5.500;2024-03-23T08:54:56;10.58;61.10
84067;SHT35;74151;52.134;5.500;2024-03-23T08:57:29;10.30;63.62
84067;SHT35;74151;52.134;5.500;2024-03-23T09:00:04;10.03;65.19
84067;SHT35;74151;52.134;5.500;2024-03-23T09:02:44;9.73;66.67
84067;SHT35;74151;52.134;5.500;2024-03-23T09:05:19;9.48;66.93
84067;SHT35;74151;52.134;5.500;2024-03-23T09:07:54;9.33;69.31
84067;SHT35;74151;52.134;5.500;2024-03-23T09:10:30;9.18;66.74
84067;SHT35;74151;52.134;5.500;2024-03-23T09:13:06;9.01;65.20
84067;SHT35;74151;52.134;5.500;2024-03-23T09:15:47;8.84;65.12
84067;SHT35;74151;52.134;5.500;2024-03-23T09:18:17;8.65;67.24
84067;SHT35;74151;52.134;5.500;2024-03-23T09:20:47;8.44;67.46
84067;SHT35;74151;52.134;5.500;2024-03-23T09:23:24;8.31;69.05
84067;SHT35;74151;52.134;5.500;2024-03-23T09:25:54;8.21;69.24
84067;SHT35;74151;52.134;5.500;2024-03-23T09:28:26;8.16;69.44
84067;SHT35;74151;52.134;5.500;2024-03-23T09:31:12;7.96;70.39
84067;SHT35;74151;52.134;5.500;2024-03-23T09:33:43;7.72;72.40
84067;SHT35;74151;52.134;5.500;2024-03-23T09:36:18;7.58;73.44
84067;SHT35;74151;52.134;5.500;2024-03-23T09:38:50;7.45;74.48
84067;SHT35;74151;52.134;5.500;2024-03-23T09:41:25;7.39;75.60
84067;SHT35;74151;52.134;5.500;2024-03-23T09:43:55;7.35;76.63
84067;SHT35;74151;52.134;5.500;2024-03-23T09:46:29;7.35;77.91
84067;SHT35;74151;52.134;5.500;2024-03-23T09:49:07;7.38;77.03
84067;SHT35;74151;52.134;5.500;2024-03-23T09:51:39;7.38;77.26
84067;SHT35;74151;52.134;5.500;2024-03-23T09:54:12;7.38;76.74
84067;SHT35;74151;52.134;5.500;2024-03-23T09:56:46;7.33;76.00
84067;SHT35;74151;52.134;5.500;2024-03-23T09:59:19;7.26;72.94
84067;SHT35;74151;52.134;5.500;2024-03-23T10:01:51;7.17;73.54
84067;SHT35;74151;52.134;5.500;2024-03-23T10:04:41;7.17;76.77
84067;SHT35;74151;52.134;5.500;2024-03-23T10:07:18;7.33;79.35
84067;SHT35;74151;52.134;5.500;2024-03-23T10:09:55;7.64;79.80
84067;SHT35;74151;52.134;5.500;2024-03-23T10:12:27;8.08;79.19
84067;SHT35;74151;52.134;5.500;2024-03-23T10:15:18;8.42;77.81
84067;SHT35;74151;52.134;5.500;2024-03-23T10:17:51;8.76;76.56
84067;SHT35;74151;52.134;5.500;2024-03-23T10:20:22;8.90;75.87
84067;SHT35;74151;52.134;5.500;2024-03-23T10:22:54;9.15;74.33
84067;SHT35;74151;52.134;5.500;2024-03-23T10:25:27;9.25;69.37
84067;SHT35;74151;52.134;5.500;2024-03-23T10:28:00;9.26;68.36
84067;SHT35;74151;52.134;5.500;2024-03-23T10:30:33;9.29;70.02
84067;SHT35;74151;52.134;5.500;2024-03-23T10:33:12;9.24;68.56
84067;SHT35;74151;52.134;5.500;2024-03-23T10:35:50;9.18;67.36
84067;SHT35;74151;52.134;5.500;2024-03-23T10:38:22;9.18;69.82
84067;SHT35;74151;52.134;5.500;2024-03-23T10:40:57;9.18;67.20
84067;SHT35;74151;52.134;5.500;2024-03-23T10:43:33;9.22;66.86
84067;SHT35;74151;52.134;5.500;2024-03-23T10:46:04;9.33;70.29
84067;SHT35;74151;52.134;5.500;2024-03-23T10:48:37;9.49;69.92
84067;SHT35;74151;52.134;5.500;2024-03-23T10:51:10;9.73;67.98
84067;SHT35;74151;52.134;5.500;2024-03-23T10:53:42;10.01;64.49
84067;SHT35;74151;52.134;5.500;2024-03-23T10:56:18;10.04;62.17
84067;SHT35;74151;52.134;5.500;2024-03-23T10:58:54;9.94;63.24
84067;SHT35;74151;52.134;5.500;2024-03-23T11:01:28;9.33;65.33
84067;SHT35;74151;52.134;5.500;2024-03-23T11:03:58;8.23;70.98
84067;SHT35;74151;52.134;5.500;2024-03-23T11:06:38;7.94;72.58
84067;SHT35;74151;52.134;5.500;2024-03-23T11:15:02;7.67;77.04
84067;SHT35;74151;52.134;5.500;2024-03-23T11:17:33;7.98;76.63
84067;SHT35;74151;52.134;5.500;2024-03-23T11:20:06;8.24;75.19
84067;SHT35;74151;52.134;5.500;2024-03-23T11:22:49;8.49;73.42
84067;SHT35;74151;52.134;5.500;2024-03-23T11:25:24;8.77;74.75
84067;SHT35;74151;52.134;5.500;2024-03-23T11:28:10;9.00;70.65
84067;SHT35;74151;52.134;5.500;2024-03-23T11:30:43;9.10;67.54
84067;SHT35;74151;52.134;5.500;2024-03-23T11:33:13;9.09;66.57
84067;SHT35;74151;52.134;5.500;2024-03-23T11:35:46;8.97;63.71
84067;SHT35;74151;52.134;5.500;2024-03-23T11:38:19;8.88;66.58
84067;SHT35;74151;52.134;5.500;2024-03-23T11:40:50;8.88;67.68
84067;SHT35;74151;52.134;5.500;2024-03-23T11:43:20;9.03;66.73
84067;SHT35;74151;52.134;5.500;2024-03-23T11:45:55;9.23;64.84
84067;SHT35;74151;52.134;5.500;2024-03-23T11:48:33;9.45;65.93
84067;SHT35;74151;52.134;5.500;2024-03-23T11:51:06;9.68;65.06
84067;SHT35;74151;52.134;5.500;2024-03-23T11:53:41;9.96;63.16
84067;SHT35;74151;52.134;5.500;2024-03-23T11:56:13;10.15;60.04
84067;SHT35;74151;52.134;5.500;2024-03-23T11:58:45;10.32;60.32
84067;SHT35;74151;52.134;5.500;2024-03-23T12:01:19;10.35;55.43
84067;SHT35;74151;52.134;5.500;2024-03-23T12:03:52;10.27;56.51
84067;SHT35;74151;52.134;5.500;2024-03-23T12:06:22;10.09;56.77
84067;SHT35;74151;52.134;5.500;2024-03-23T12:08:53;9.75;57.57
84067;SHT35;74151;52.134;5.500;2024-03-23T12:11:24;9.59;59.79
84067;SHT35;74151;52.134;5.500;2024-03-23T12:14:00;9.48;59.85
84067;SHT35;74151;52.134;5.500;2024-03-23T12:16:34;9.44;61.13
84067;SHT35;74151;52.134;5.500;2024-03-23T12:19:09;9.43;61.28
84067;SHT35;74151;52.134;5.500;2024-03-23T12:21:41;9.41;60.03
84067;SHT35;74151;52.134;5.500;2024-03-23T12:24:19;9.38;58.08
84067;SHT35;74151;52.134;5.500;2024-03-23T12:26:52;9.23;59.53
84067;SHT35;74151;52.134;5.500;2024-03-23T12:29:30;9.15;61.85
84067;SHT35;74151;52.134;5.500;2024-03-23T12:32:03;9.19;61.39
84067;SHT35;74151;52.134;5.500;2024-03-23T12:34:35;9.36;63.57
84067;SHT35;74151;52.134;5.500;2024-03-23T12:37:08;9.50;63.10
84067;SHT35;74151;52.134;5.500;2024-03-23T12:39:43;9.54;58.62
84067;SHT35;74151;52.134;5.500;2024-03-23T12:42:13;9.51;59.78
84067;SHT35;74151;52.134;5.500;2024-03-23T12:44:46;9.47;59.09
84067;SHT35;74151;52.134;5.500;2024-03-23T12:47:22;9.49;60.55
84067;SHT35;74151;52.134;5.500;2024-03-23T12:49:59;9.54;60.61
84067;SHT35;74151;52.134;5.500;2024-03-23T12:52:34;9.58;59.01
84067;SHT35;74151;52.134;5.500;2024-03-23T12:55:09;9.65;59.37
84067;SHT35;74151;52.134;5.500;2024-03-23T12:57:41;9.76;57.73
84067;SHT35;74151;52.134;5.500;2024-03-23T13:00:12;9.77;59.69
84067;SHT35;74151;52.134;5.500;2024-03-23T13:02:48;9.63;61.53
84067;SHT35;74151;52.134;5.500;2024-03-23T13:05:17;9.54;64.31
84067;SHT35;74151;52.134;5.500;2024-03-23T13:07:47;9.57;62.98
84067;SHT35;74151;52.134;5.500;2024-03-23T13:10:24;9.57;62.70
84067;SHT35;74151;52.134;5.500;2024-03-23T13:12:56;9.53;62.50
84067;SHT35;74151;52.134;5.500;2024-03-23T13:15:33;9.49;62.03
84067;SHT35;74151;52.134;5.500;2024-03-23T13:18:08;9.38;59.64
84067;SHT35;74151;52.134;5.500;2024-03-23T13:20:40;9.13;60.31
84067;SHT35;74151;52.134;5.500;2024-03-23T13:23:12;9.01;60.37
84067;SHT35;74151;52.134;5.500;2024-03-23T13:25:57;8.99;62.63
84067;SHT35;74151;52.134;5.500;2024-03-23T13:28:27;9.13;61.56
84067;SHT35;74151;52.134;5.500;2024-03-23T13:30:59;9.24;59.42
84067;SHT35;74151;52.134;5.500;2024-03-23T13:33:33;9.21;61.03
84067;SHT35;74151;52.134;5.500;2024-03-23T13:36:04;9.03;59.97
84067;SHT35;74151;52.134;5.500;2024-03-23T13:38:36;8.85;61.11
84067;SHT35;74151;52.134;5.500;2024-03-23T13:41:09;8.60;61.88
84067;SHT35;74151;52.134;5.500;2024-03-23T13:43:40;8.28;64.45
84067;SHT35;74151;52.134;5.500;2024-03-23T13:46:12;8.15;64.83
84067;SHT35;74151;52.134;5.500;2024-03-23T13:48:44;8.09;64.12
84067;SHT35;74151;52.134;5.500;2024-03-23T13:51:23;8.18;67.04
84067;SHT35;74151;52.134;5.500;2024-03-23T13:53:55;8.44;65.40
84067;SHT35;74151;52.134;5.500;2024-03-23T13:56:32;8.68;62.95
84067;SHT35;74151;52.134;5.500;2024-03-23T13:59:07;8.80;62.50
84067;SHT35;74151;52.134;5.500;2024-03-23T14:01:37;8.92;62.53
84067;SHT35;74151;52.134;5.500;2024-03-23T14:04:11;9.01;62.74
84067;SHT35;74151;52.134;5.500;2024-03-23T14:06:49;9.04;61.05
84067;SHT35;74151;52.134;5.500;2024-03-23T14:09:19;9.04;60.95
84067;SHT35;74151;52.134;5.500;2024-03-23T14:11:51;9.07;62.67
84067;SHT35;74151;52.134;5.500;2024-03-23T14:14:21;9.13;63.91
84067;SHT35;74151;52.134;5.500;2024-03-23T14:16:51;9.30;65.56
84067;SHT35;74151;52.134;5.500;2024-03-23T14:19:23;9.45;62.77
84067;SHT35;74151;52.134;5.500;2024-03-23T14:21:53;9.53;62.69
84067;SHT35;74151;52.134;5.500;2024-03-23T14:24:23;9.59;62.53
84067;SHT35;74151;52.134;5.500;2024-03-23T14:26:57;9.59;61.98
84067;SHT35;74151;52.134;5.500;2024-03-23T14:29:35;9.62;61.27
84067;SHT35;74151;52.134;5.500;2024-03-23T14:32:09;9.59;61.18
84067;SHT35;74151;52.134;5.500;2024-03-23T14:34:43;9.51;60.95
84067;SHT35;74151;52.134;5.500;2024-03-23T14:37:14;9.44;62.32
84067;SHT35;74151;52.134;5.500;2024-03-23T14:39:47;9.41;59.98
84067;SHT35;74151;52.134;5.500;2024-03-23T14:42:19;9.44;63.21
84067;SHT35;74151;52.134;5.500;2024-03-23T14:44:52;9.50;61.39
84067;SHT35;74151;52.134;5.500;2024-03-23T14:47:22;9.49;61.41
84067;SHT35;74151;52.134;5.500;2024-03-23T14:49:54;9.46;61.82
84067;SHT35;74151;52.134;5.500;2024-03-23T14:52:26;9.43;61.02
84067;SHT35;74151;52.134;5.500;2024-03-23T14:54:58;9.40;62.75
84067;SHT35;74151;52.134;5.500;2024-03-23T14:57:28;9.43;63.13
84067;SHT35;74151;52.134;5.500;2024-03-23T14:59:58;9.43;61.89
84067;SHT35;74151;52.134;5.500;2024-03-23T15:02:30;9.41;59.86
84067;SHT35;74151;52.134;5.500;2024-03-23T15:05:01;9.35;58.08
84067;SHT35;74151;52.134;5.500;2024-03-23T15:07:34;9.25;58.10
84067;SHT35;74151;52.134;5.500;2024-03-23T15:10:10;9.13;59.60
84067;SHT35;74151;52.134;5.500;2024-03-23T15:12:47;9.07;59.77
84067;SHT35;74151;52.134;5.500;2024-03-23T15:15:17;9.08;63.32
84067;SHT35;74151;52.134;5.500;2024-03-23T15:17:52;9.16;62.31
84067;SHT35;74151;52.134;5.500;2024-03-23T15:20:24;9.20;60.65
84067;SHT35;74151;52.134;5.500;2024-03-23T15:22:56;9.31;63.01
84067;SHT35;74151;52.134;5.500;2024-03-23T15:25:26;9.45;62.19
84067;SHT35;74151;52.134;5.500;2024-03-23T15:27:58;9.51;60.61
84067;SHT35;74151;52.134;5.500;2024-03-23T15:30:34;9.50;59.19
84067;SHT35;74151;52.134;5.500;2024-03-23T15:33:06;9.42;59.98
84067;SHT35;74151;52.134;5.500;2024-03-23T15:35:43;9.38;58.60
84067;SHT35;74151;52.134;5.500;2024-03-23T15:38:13;9.38;59.45
84067;SHT35;74151;52.134;5.500;2024-03-23T15:40:54;9.31;59.26
84067;SHT35;74151;52.134;5.500;2024-03-23T15:43:27;9.23;59.06
84067;SHT35;74151;52.134;5.500;2024-03-23T15:46:04;9.18;59.28
84067;SHT35;74151;52.134;5.500;2024-03-23T15:48:40;9.09;59.40
84067;SHT35;74151;52.134;5.500;2024-03-23T15:51:16;8.99;60.16
84067;SHT35;74151;52.134;5.500;2024-03-23T15:53:48;8.86;61.31
84067;SHT35;74151;52.134;5.500;2024-03-23T15:56:25;8.77;62.80
84067;SHT35;74151;52.134;5.500;2024-03-23T15:58:59;8.69;64.89
84067;SHT35;74151;52.134;5.500;2024-03-23T16:01:37;8.65;64.85
84067;SHT35;74151;52.134;5.500;2024-03-23T16:04:12;8.65;64.68
84067;SHT35;74151;52.134;5.500;2024-03-23T16:06:43;8.64;65.39
84067;SHT35;74151;52.134;5.500;2024-03-23T16:09:20;8.66;64.61
84067;SHT35;74151;52.134;5.500;2024-03-23T16:11:50;8.63;65.11
84067;SHT35;74151;52.134;5.500;2024-03-23T16:14:20;8.65;66.37
84067;SHT35;74151;52.134;5.500;2024-03-23T16:16:53;8.66;66.25
84067;SHT35;74151;52.134;5.500;2024-03-23T16:19:27;8.71;65.62
84067;SHT35;74151;52.134;5.500;2024-03-23T16:21:59;8.78;65.58
84067;SHT35;74151;52.134;5.500;2024-03-23T16:24:34;8.81;66.59
84067;SHT35;74151;52.134;5.500;2024-03-23T16:27:06;8.79;66.02
84067;SHT35;74151;52.134;5.500;2024-03-23T16:29:43;8.75;65.78
84067;SHT35;74151;52.134;5.500;2024-03-23T16:32:15;8.67;66.36
84067;SHT35;74151;52.134;5.500;2024-03-23T16:34:46;8.61;67.45
84067;SHT35;74151;52.134;5.500;2024-03-23T16:37:18;8.60;67.61
84067;SHT35;74151;52.134;5.500;2024-03-23T16:39:53;8.52;67.39
84067;SHT35;74151;52.134;5.500;2024-03-23T16:42:23;8.43;67.58
84067;SHT35;74151;52.134;5.500;2024-03-23T16:44:58;8.22;69.37
84067;SHT35;74151;52.134;5.500;2024-03-23T16:47:30;8.00;66.30
84067;SHT35;74151;52.134;5.500;2024-03-23T16:50:01;7.60;71.72
84067;SHT35;74151;52.134;5.500;2024-03-23T16:52:35;7.46;72.80
84067;SHT35;74151;52.134;5.500;2024-03-23T16:55:08;7.38;71.16
84067;SHT35;74151;52.134;5.500;2024-03-23T16:57:45;7.31;71.82
84067;SHT35;74151;52.134;5.500;2024-03-23T17:00:17;7.25;72.79
84067;SHT35;74151;52.134;5.500;2024-03-23T17:02:50;7.22;73.47
84067;SHT35;74151;52.134;5.500;2024-03-23T17:05:22;7.17;73.83
84067;SHT35;74151;52.134;5.500;2024-03-23T17:07:52;7.08;74.04
84067;SHT35;74151;52.134;5.500;2024-03-23T17:10:29;6.97;74.05
84067;SHT35;74151;52.134;5.500;2024-03-23T17:13:02;6.87;71.74
84067;SHT35;74151;52.134;5.500;2024-03-23T17:15:33;6.78;71.23
84067;SHT35;74151;52.134;5.500;2024-03-23T17:18:06;6.68;71.93
84067;SHT35;74151;52.134;5.500;2024-03-23T17:20:41;6.61;72.56